createdAt,value
2019-06-15T00:00:23.401Z,23.88
2019-06-15T00:01:23.402Z,23.94
2019-06-15T00:02:23.411Z,23.84
2019-06-15T00:03:23.408Z,23.87
2019-06-15T00:04:23.412Z,23.84
2019-06-15T00:05:23.413Z,23.83
2019-06-15T00:06:23.425Z,23.87
2019-06-15T00:07:23.415Z,23.87
2019-06-15T00:08:23.421Z,23.90
2019-06-15T00:09:23.428Z,23.80
2019-06-15T00:10:23.428Z,23.90
2019-06-15T00:11:23.429Z,23.88
2019-06-15T00:12:23.430Z,23.80
2019-06-15T00:13:23.462Z,23.84
2019-06-15T00:14:23.453Z,23.85
2019-06-15T00:15:23.448Z,23.78
2019-06-15T00:16:23.441Z,23.83
2019-06-15T00:17:23.451Z,23.75
2019-06-15T00:18:23.449Z,23.80
2019-06-15T00:19:23.445Z,23.73
2019-06-15T00:20:23.465Z,23.73
2019-06-15T00:21:23.456Z,23.75
2019-06-15T00:22:23.520Z,23.69
2019-06-15T00:23:23.457Z,23.68
2019-06-15T00:24:34.853Z,23.70
2019-06-15T00:25:23.465Z,23.68
2019-06-15T00:26:23.469Z,23.68
2019-06-15T00:27:23.474Z,23.78
2019-06-15T00:28:23.473Z,23.69
2019-06-15T00:29:23.474Z,23.70
2019-06-15T00:30:23.479Z,23.73
2019-06-15T00:31:23.478Z,23.66
2019-06-15T00:32:23.481Z,23.61
2019-06-15T00:33:23.486Z,23.68
2019-06-15T00:34:23.488Z,23.68
2019-06-15T00:35:23.488Z,23.58
2019-06-15T00:36:23.491Z,23.55
2019-06-15T00:37:23.517Z,23.55
2019-06-15T00:38:23.494Z,23.58
2019-06-15T00:39:23.497Z,23.57
2019-06-15T00:40:23.501Z,23.53
2019-06-15T00:41:23.500Z,23.58
2019-06-15T00:42:23.505Z,23.53
2019-06-15T00:43:23.505Z,23.53
2019-06-15T00:44:23.516Z,23.61
2019-06-15T00:45:23.518Z,23.60
2019-06-15T00:46:23.514Z,23.57
2019-06-15T00:47:23.515Z,23.61
2019-06-15T00:48:23.519Z,23.55
2019-06-15T00:49:23.523Z,23.58
2019-06-15T00:50:23.524Z,23.48
2019-06-15T00:51:23.528Z,23.58
2019-06-15T00:52:23.529Z,23.53
2019-06-15T00:53:23.529Z,23.48
2019-06-15T00:54:23.537Z,23.55
2019-06-15T00:55:23.536Z,23.53
2019-06-15T00:56:23.536Z,23.61
2019-06-15T00:57:23.545Z,23.55
2019-06-15T00:58:23.544Z,23.58
2019-06-15T00:59:23.548Z,23.65
2019-06-15T01:00:23.550Z,23.54
2019-06-15T01:01:23.551Z,23.68
2019-06-15T01:02:23.561Z,23.54
2019-06-15T01:03:23.574Z,23.61
2019-06-15T01:04:23.558Z,23.54
2019-06-15T01:05:23.561Z,23.60
2019-06-15T01:06:23.560Z,23.51
2019-06-15T01:07:23.570Z,23.47
2019-06-15T01:08:23.565Z,23.55
2019-06-15T01:09:23.568Z,23.54
2019-06-15T01:10:23.570Z,23.57
2019-06-15T01:11:23.581Z,23.50
2019-06-15T01:12:23.580Z,23.39
2019-06-15T01:13:23.579Z,23.48
2019-06-15T01:14:23.584Z,23.48
2019-06-15T01:15:23.584Z,23.46
2019-06-15T01:16:23.583Z,23.40
2019-06-15T01:17:23.592Z,23.40
2019-06-15T01:18:23.591Z,23.46
2019-06-15T01:19:23.597Z,23.42
2019-06-15T01:20:23.600Z,23.42
2019-06-15T01:21:23.617Z,23.43
2019-06-15T01:22:23.603Z,23.48
2019-06-15T01:23:23.598Z,23.47
2019-06-15T01:24:23.606Z,23.51
2019-06-15T01:25:23.607Z,23.46
2019-06-15T01:26:23.607Z,23.46
2019-06-15T01:27:23.609Z,23.42
2019-06-15T01:28:23.619Z,23.42
2019-06-15T01:29:23.613Z,23.46
2019-06-15T01:30:23.628Z,23.48
2019-06-15T01:31:23.622Z,23.42
2019-06-15T01:32:23.623Z,23.33
2019-06-15T01:33:23.624Z,23.42
2019-06-15T01:34:23.624Z,23.43
2019-06-15T01:35:23.634Z,23.46
2019-06-15T01:36:23.633Z,23.43
2019-06-15T01:37:23.675Z,23.47
2019-06-15T01:38:23.637Z,23.50
2019-06-15T01:39:23.638Z,23.51
2019-06-15T01:40:23.651Z,23.38
2019-06-15T01:41:23.652Z,23.46
2019-06-15T01:42:23.648Z,23.50
2019-06-15T01:43:23.652Z,23.50
2019-06-15T01:44:23.648Z,23.48
2019-06-15T01:45:23.654Z,23.42
2019-06-15T01:46:23.653Z,23.47
2019-06-15T01:47:23.659Z,23.46
2019-06-15T01:48:23.662Z,23.51
2019-06-15T01:49:23.664Z,23.38
2019-06-15T01:50:23.665Z,23.40
2019-06-15T01:51:23.667Z,23.39
2019-06-15T01:52:23.666Z,23.48
2019-06-15T01:53:23.670Z,23.40
2019-06-15T01:54:23.672Z,23.42
2019-06-15T01:55:23.674Z,23.43
2019-06-15T01:56:23.678Z,23.43
2019-06-15T01:57:23.679Z,23.53
2019-06-15T01:58:23.683Z,23.43
2019-06-15T01:59:23.687Z,23.35
2019-06-15T02:00:23.686Z,23.43
2019-06-15T02:01:23.688Z,23.39
2019-06-15T02:02:23.690Z,23.46
2019-06-15T02:03:23.691Z,23.47
2019-06-15T02:04:23.696Z,23.42
2019-06-15T02:05:23.698Z,23.42
2019-06-15T02:06:23.698Z,23.43
2019-06-15T02:07:23.706Z,23.42
2019-06-15T02:08:23.710Z,23.38
2019-06-15T02:09:23.707Z,23.42
2019-06-15T02:10:23.716Z,23.47
2019-06-15T02:11:23.712Z,23.48
2019-06-15T02:12:23.714Z,23.36
2019-06-15T02:13:23.717Z,23.38
2019-06-15T02:14:23.722Z,23.38
2019-06-15T02:15:23.718Z,23.32
2019-06-15T02:16:23.719Z,23.23
2019-06-15T02:17:23.729Z,23.27
2019-06-15T02:18:23.728Z,23.35
2019-06-15T02:19:23.728Z,23.33
2019-06-15T02:20:23.734Z,23.36
2019-06-15T02:21:23.748Z,23.32
2019-06-15T02:22:23.737Z,23.25
2019-06-15T02:23:23.735Z,23.27
2019-06-15T02:24:23.743Z,23.28
2019-06-15T02:25:35.411Z,23.27
2019-06-15T02:26:23.751Z,23.16
2019-06-15T02:27:23.748Z,23.16
2019-06-15T02:28:23.747Z,23.10
2019-06-15T02:29:23.753Z,23.12
2019-06-15T02:30:23.758Z,23.12
2019-06-15T02:31:23.759Z,23.09
2019-06-15T02:32:23.756Z,23.07
2019-06-15T02:33:23.761Z,23.04
2019-06-15T02:34:23.762Z,23.05
2019-06-15T02:35:23.769Z,23.05
2019-06-15T02:36:23.767Z,22.94
2019-06-15T02:37:23.778Z,22.92
2019-06-15T02:38:23.771Z,22.86
2019-06-15T02:39:23.771Z,22.94
2019-06-15T02:40:23.780Z,22.91
2019-06-15T02:41:23.773Z,22.91
2019-06-15T02:42:23.776Z,22.80
2019-06-15T02:43:23.781Z,22.85
2019-06-15T02:44:23.781Z,22.79
2019-06-15T02:45:23.789Z,22.75
2019-06-15T02:46:26.514Z,22.70
2019-06-15T02:47:23.797Z,22.70
2019-06-15T02:48:23.796Z,22.58
2019-06-15T02:49:23.793Z,22.51
2019-06-15T02:50:23.797Z,22.46
2019-06-15T02:51:23.797Z,22.46
2019-06-15T02:52:23.799Z,22.46
2019-06-15T02:53:23.807Z,22.27
2019-06-15T02:54:23.804Z,22.24
2019-06-15T02:55:23.812Z,22.22
2019-06-15T02:56:23.809Z,22.27
2019-06-15T02:57:23.811Z,22.25
2019-06-15T02:58:23.811Z,22.14
2019-06-15T02:59:23.816Z,22.05
2019-06-15T03:00:23.821Z,22.07
2019-06-15T03:01:23.817Z,22.09
2019-06-15T03:02:23.821Z,22.05
2019-06-15T03:03:23.826Z,21.96
2019-06-15T03:04:23.834Z,21.92
2019-06-15T03:05:23.831Z,21.91
2019-06-15T03:06:23.833Z,21.79
2019-06-15T03:07:23.828Z,21.86
2019-06-15T03:08:23.827Z,21.86
2019-06-15T03:09:23.833Z,21.84
2019-06-15T03:10:23.833Z,21.77
2019-06-15T03:11:23.841Z,21.64
2019-06-15T03:12:23.839Z,21.64
2019-06-15T03:13:23.839Z,21.71
2019-06-15T03:14:23.847Z,21.77
2019-06-15T03:15:23.842Z,21.68
2019-06-15T03:16:23.850Z,21.58
2019-06-15T03:17:23.851Z,21.65
2019-06-15T03:18:23.855Z,21.64
2019-06-15T03:19:23.852Z,21.67
2019-06-15T03:20:23.865Z,21.64
2019-06-15T03:21:23.853Z,21.54
2019-06-15T03:22:23.871Z,21.69
2019-06-15T03:23:23.868Z,21.65
2019-06-15T03:24:23.863Z,21.65
2019-06-15T03:25:23.868Z,21.62
2019-06-15T03:26:23.866Z,21.67
2019-06-15T03:27:23.886Z,21.68
2019-06-15T03:28:23.866Z,21.72
2019-06-15T03:29:23.870Z,21.67
2019-06-15T03:30:23.878Z,21.71
2019-06-15T03:31:23.878Z,21.62
2019-06-15T03:32:23.880Z,21.86
2019-06-15T03:33:23.875Z,21.80
2019-06-15T03:34:23.876Z,21.79
2019-06-15T03:35:23.883Z,21.83
2019-06-15T03:36:23.881Z,21.84
2019-06-15T03:37:23.884Z,21.94
2019-06-15T03:38:23.886Z,21.96
2019-06-15T03:39:23.883Z,21.98
2019-06-15T03:40:23.887Z,21.96
2019-06-15T03:41:23.883Z,22.06
2019-06-15T03:42:23.886Z,21.99
2019-06-15T03:43:23.893Z,22.07
2019-06-15T03:44:23.894Z,22.12
2019-06-15T03:45:23.895Z,22.09
2019-06-15T03:46:23.893Z,22.07
2019-06-15T03:47:23.899Z,22.14
2019-06-15T03:48:23.902Z,22.22
2019-06-15T03:49:23.896Z,22.21
2019-06-15T03:50:23.902Z,22.15
2019-06-15T03:51:23.905Z,22.21
2019-06-15T03:52:23.907Z,22.22
2019-06-15T03:53:23.908Z,22.24
2019-06-15T03:54:23.910Z,22.20
2019-06-15T03:55:23.912Z,22.18
2019-06-15T03:56:23.910Z,22.25
2019-06-15T03:57:23.912Z,22.17
2019-06-15T03:58:23.916Z,22.21
2019-06-15T03:59:23.916Z,22.17
2019-06-15T04:00:23.920Z,22.22
2019-06-15T04:01:23.918Z,22.22
2019-06-15T04:02:23.920Z,22.24
2019-06-15T04:03:23.924Z,22.22
2019-06-15T04:04:23.928Z,22.20
2019-06-15T04:05:23.928Z,22.31
2019-06-15T04:06:23.929Z,22.25
2019-06-15T04:07:23.932Z,22.22
2019-06-15T04:08:23.930Z,22.31
2019-06-15T04:09:23.930Z,22.27
2019-06-15T04:10:23.933Z,22.27
2019-06-15T04:11:23.942Z,22.21
2019-06-15T04:12:23.940Z,22.25
2019-06-15T04:13:23.938Z,22.25
2019-06-15T04:14:23.944Z,22.33
2019-06-15T04:15:23.944Z,22.20
2019-06-15T04:16:23.943Z,22.31
2019-06-15T04:17:23.944Z,22.24
2019-06-15T04:18:23.953Z,22.31
2019-06-15T04:19:23.956Z,22.31
2019-06-15T04:20:23.946Z,22.37
2019-06-15T04:21:23.950Z,22.33
2019-06-15T04:22:23.954Z,22.36
2019-06-15T04:23:23.954Z,22.40
2019-06-15T04:24:23.958Z,22.37
2019-06-15T04:25:23.961Z,22.39
2019-06-15T04:26:35.335Z,22.33
2019-06-15T04:27:24.001Z,22.47
2019-06-15T04:28:23.960Z,22.45
2019-06-15T04:29:23.965Z,22.43
2019-06-15T04:30:23.964Z,22.46
2019-06-15T04:31:23.968Z,22.58
2019-06-15T04:32:23.966Z,22.45
2019-06-15T04:33:23.977Z,22.54
2019-06-15T04:34:23.977Z,22.60
2019-06-15T04:35:23.977Z,22.60
2019-06-15T04:36:23.978Z,22.54
2019-06-15T04:37:23.978Z,22.68
2019-06-15T04:38:23.979Z,22.64
2019-06-15T04:39:23.982Z,22.62
2019-06-15T04:40:24.121Z,22.68
2019-06-15T04:41:23.987Z,22.79
2019-06-15T04:42:23.991Z,22.72
2019-06-15T04:43:23.998Z,22.82
2019-06-15T04:44:23.992Z,22.82
2019-06-15T04:45:23.994Z,22.86
2019-06-15T04:46:24.045Z,22.95
2019-06-15T04:47:23.995Z,22.91
2019-06-15T04:48:23.999Z,23.07
2019-06-15T04:49:24.017Z,23.04
2019-06-15T04:50:24.374Z,23.15
2019-06-15T04:51:24.031Z,23.15
2019-06-15T04:52:24.018Z,23.20
2019-06-15T04:53:24.018Z,23.27
2019-06-15T04:54:24.016Z,23.27
2019-06-15T04:55:24.021Z,23.36
2019-06-15T04:56:24.025Z,23.42
2019-06-15T04:57:24.038Z,23.42
2019-06-15T04:58:24.018Z,23.40
2019-06-15T04:59:24.023Z,23.51
2019-06-15T05:00:24.018Z,23.48
2019-06-15T05:01:24.028Z,23.60
2019-06-15T05:02:27.175Z,23.57
2019-06-15T05:03:24.028Z,23.55
2019-06-15T05:04:24.037Z,23.63
2019-06-15T05:05:24.037Z,23.75
2019-06-15T05:06:24.049Z,23.72
2019-06-15T05:07:24.031Z,23.69
2019-06-15T05:08:24.039Z,23.84
2019-06-15T05:09:24.047Z,23.85
2019-06-15T05:10:24.083Z,23.78
2019-06-15T05:11:24.039Z,23.79
2019-06-15T05:12:24.043Z,23.80
2019-06-15T05:13:24.041Z,23.79
2019-06-15T05:14:24.046Z,23.76
2019-06-15T05:15:24.050Z,23.83
2019-06-15T05:16:24.052Z,23.80
2019-06-15T05:17:24.058Z,23.85
2019-06-15T05:18:24.059Z,23.76
2019-06-15T05:19:24.062Z,23.83
2019-06-15T05:20:24.065Z,23.84
2019-06-15T05:21:24.065Z,23.90
2019-06-15T05:22:24.065Z,23.85
2019-06-15T05:23:24.067Z,23.85
2019-06-15T05:24:24.067Z,23.85
2019-06-15T05:25:24.070Z,23.94
2019-06-15T05:26:24.076Z,24.00
2019-06-15T05:27:24.088Z,24.06
2019-06-15T05:28:24.077Z,24.02
2019-06-15T05:29:24.078Z,24.12
2019-06-15T05:30:24.087Z,24.06
2019-06-15T05:31:24.079Z,24.08
2019-06-15T05:32:24.085Z,24.22
2019-06-15T05:33:24.093Z,24.28
2019-06-15T05:34:24.091Z,24.32
2019-06-15T05:35:24.097Z,24.31
2019-06-15T05:36:24.095Z,24.39
2019-06-15T05:37:24.097Z,24.30
2019-06-15T05:38:24.095Z,24.47
2019-06-15T05:39:24.103Z,24.52
2019-06-15T05:40:24.099Z,24.50
2019-06-15T05:41:24.105Z,24.50
2019-06-15T05:42:24.119Z,24.57
2019-06-15T05:43:24.112Z,24.57
2019-06-15T05:44:24.113Z,24.68
2019-06-15T05:45:24.111Z,24.60
2019-06-15T05:46:24.117Z,24.62
2019-06-15T05:47:24.115Z,24.68
2019-06-15T05:48:24.116Z,24.68
2019-06-15T05:49:24.121Z,24.68
2019-06-15T05:50:24.124Z,24.78
2019-06-15T05:51:24.128Z,24.71
2019-06-15T05:52:24.131Z,24.84
2019-06-15T05:53:24.135Z,24.80
2019-06-15T05:54:24.135Z,24.85
2019-06-15T05:55:24.135Z,24.88
2019-06-15T05:56:24.142Z,24.85
2019-06-15T05:57:24.144Z,24.85
2019-06-15T05:58:24.144Z,24.84
2019-06-15T05:59:24.144Z,24.85
2019-06-15T06:00:24.148Z,24.84
2019-06-15T06:01:24.154Z,24.88
2019-06-15T06:02:24.955Z,24.88
2019-06-15T06:03:24.160Z,24.88
2019-06-15T06:04:24.160Z,24.96
2019-06-15T06:05:24.172Z,24.96
2019-06-15T06:06:24.162Z,25.06
2019-06-15T06:07:24.166Z,25.03
2019-06-15T06:08:24.169Z,25.10
2019-06-15T06:09:24.173Z,25.13
2019-06-15T06:10:24.177Z,25.15
2019-06-15T06:11:24.184Z,25.18
2019-06-15T06:12:24.181Z,25.24
2019-06-15T06:13:24.181Z,25.18
2019-06-15T06:14:24.188Z,25.24
2019-06-15T06:15:26.798Z,25.28
2019-06-15T06:16:24.186Z,25.35
2019-06-15T06:17:24.194Z,25.40
2019-06-15T06:18:24.196Z,25.47
2019-06-15T06:19:24.202Z,25.55
2019-06-15T06:20:24.198Z,25.54
2019-06-15T06:21:24.202Z,25.60
2019-06-15T06:22:24.212Z,25.58
2019-06-15T06:23:24.206Z,25.67
2019-06-15T06:24:24.212Z,25.70
2019-06-15T06:25:24.216Z,25.73
2019-06-15T06:26:24.546Z,25.75
2019-06-15T06:27:35.839Z,25.75
2019-06-15T06:28:24.218Z,25.76
2019-06-15T06:29:24.230Z,25.73
2019-06-15T06:30:24.228Z,25.69
2019-06-15T06:31:24.236Z,25.70
2019-06-15T06:32:24.234Z,25.87
2019-06-15T06:33:24.242Z,25.83
2019-06-15T06:34:24.238Z,25.92
2019-06-15T06:35:24.246Z,25.97
2019-06-15T06:36:24.249Z,25.92
2019-06-15T06:37:24.256Z,25.90
2019-06-15T06:38:24.255Z,25.90
2019-06-15T06:39:24.257Z,25.92
2019-06-15T06:40:24.259Z,26.01
2019-06-15T06:41:24.264Z,26.01
2019-06-15T06:42:24.263Z,26.09
2019-06-15T06:43:24.270Z,26.09
2019-06-15T06:44:24.274Z,26.10
2019-06-15T06:45:24.274Z,26.07
2019-06-15T06:46:24.276Z,26.13
2019-06-15T06:47:24.286Z,26.09
2019-06-15T06:48:24.282Z,26.06
2019-06-15T06:49:24.288Z,26.15
2019-06-15T06:50:24.295Z,26.17
2019-06-15T06:51:24.292Z,26.20
2019-06-15T06:52:24.299Z,26.18
2019-06-15T06:53:24.302Z,26.23
2019-06-15T06:54:24.366Z,26.40
2019-06-15T06:55:24.306Z,26.37
2019-06-15T06:56:24.311Z,26.47
2019-06-15T06:57:24.312Z,26.57
2019-06-15T06:58:24.316Z,26.63
2019-06-15T06:59:24.324Z,26.70
2019-06-15T07:00:24.321Z,26.80
2019-06-15T07:01:24.328Z,26.87
2019-06-15T07:02:24.326Z,26.89
2019-06-15T07:03:24.332Z,26.82
2019-06-15T07:04:24.338Z,26.88
2019-06-15T07:05:24.341Z,26.91
2019-06-15T07:06:24.341Z,26.97
2019-06-15T07:07:24.359Z,27.10
2019-06-15T07:08:24.347Z,27.14
2019-06-15T07:09:24.375Z,27.29
2019-06-15T07:10:24.357Z,27.39
2019-06-15T07:11:24.367Z,27.47
2019-06-15T07:12:24.363Z,27.59
2019-06-15T07:13:24.369Z,27.55
2019-06-15T07:14:24.370Z,27.63
2019-06-15T07:15:24.376Z,27.67
2019-06-15T07:16:24.377Z,27.62
2019-06-15T07:17:24.382Z,27.78
2019-06-15T07:18:24.391Z,27.65
2019-06-15T07:19:24.391Z,27.75
2019-06-15T07:20:24.399Z,27.88
2019-06-15T07:21:24.399Z,27.82
2019-06-15T07:22:24.406Z,27.88
2019-06-15T07:23:24.403Z,28.03
2019-06-15T07:24:24.407Z,28.00
2019-06-15T07:25:24.417Z,28.14
2019-06-15T07:26:24.422Z,28.27
2019-06-15T07:27:24.425Z,28.17
2019-06-15T07:28:24.434Z,28.36
2019-06-15T07:29:24.434Z,28.31
2019-06-15T07:30:24.434Z,28.39
2019-06-15T07:31:24.445Z,28.34
2019-06-15T07:32:24.449Z,28.40
2019-06-15T07:33:24.454Z,28.36
2019-06-15T07:34:24.490Z,28.44
2019-06-15T07:35:24.466Z,28.46
2019-06-15T07:36:24.520Z,28.58
2019-06-15T07:37:24.473Z,28.62
2019-06-15T07:38:24.479Z,28.76
2019-06-15T07:39:24.513Z,28.93
2019-06-15T07:40:24.502Z,28.93
2019-06-15T07:41:24.489Z,28.89
2019-06-15T07:42:24.495Z,29.08
2019-06-15T07:43:24.506Z,29.14
2019-06-15T07:44:24.517Z,29.24
2019-06-15T07:45:24.517Z,29.34
2019-06-15T07:46:24.521Z,29.31
2019-06-15T07:47:24.523Z,29.53
2019-06-15T07:48:24.526Z,29.74
2019-06-15T07:49:24.537Z,29.86
2019-06-15T07:50:24.550Z,29.92
2019-06-15T07:51:24.549Z,30.05
2019-06-15T07:52:24.553Z,30.00
2019-06-15T07:53:24.574Z,30.02
2019-06-15T07:54:24.567Z,30.04
2019-06-15T07:55:24.598Z,30.01
2019-06-15T07:56:24.579Z,30.01
2019-06-15T07:57:24.585Z,30.13
2019-06-15T07:58:25.097Z,30.24
2019-06-15T07:59:24.597Z,30.32
2019-06-15T08:00:24.599Z,30.55
2019-06-15T08:01:24.609Z,30.53
2019-06-15T08:02:24.622Z,30.60
2019-06-15T08:03:24.621Z,30.69
2019-06-15T08:04:24.625Z,30.77
2019-06-15T08:05:24.634Z,30.94
2019-06-15T08:06:24.641Z,31.12
2019-06-15T08:07:24.684Z,31.23
2019-06-15T08:08:24.648Z,31.19
2019-06-15T08:09:24.665Z,31.29
2019-06-15T08:10:24.669Z,31.39
2019-06-15T08:11:24.675Z,31.66
2019-06-15T08:12:24.677Z,31.93
2019-06-15T08:13:24.687Z,31.89
2019-06-15T08:14:24.695Z,32.04
2019-06-15T08:15:24.701Z,32.25
2019-06-15T08:16:24.720Z,32.40
2019-06-15T08:17:24.715Z,32.69
2019-06-15T08:18:24.722Z,33.06
2019-06-15T08:19:24.733Z,33.39
2019-06-15T08:20:24.782Z,33.57
2019-06-15T08:21:24.744Z,33.82
2019-06-15T08:22:24.756Z,33.84
2019-06-15T08:23:24.768Z,33.79
2019-06-15T08:24:24.898Z,33.69
2019-06-15T08:25:24.781Z,33.44
2019-06-15T08:26:24.789Z,33.54
2019-06-15T08:27:24.803Z,33.44
2019-06-15T08:28:37.087Z,33.31
2019-06-15T08:29:24.827Z,33.42
2019-06-15T08:30:24.832Z,33.29
2019-06-15T08:31:24.847Z,32.93
2019-06-15T08:32:24.853Z,33.00
2019-06-15T08:33:24.861Z,32.87
2019-06-15T08:34:24.892Z,32.51
2019-06-15T08:35:24.890Z,32.55
2019-06-15T08:36:24.895Z,32.94
2019-06-15T08:37:24.914Z,33.29
2019-06-15T08:38:24.922Z,33.50
2019-06-15T08:39:24.966Z,33.76
2019-06-15T08:40:24.937Z,33.78
2019-06-15T08:41:24.950Z,34.06
2019-06-15T08:42:24.962Z,34.28
2019-06-15T08:43:24.986Z,34.30
2019-06-15T08:44:24.998Z,34.24
2019-06-15T08:45:25.004Z,34.35
2019-06-15T08:46:25.014Z,34.39
2019-06-15T08:47:25.026Z,34.72
2019-06-15T08:48:25.047Z,35.03
2019-06-15T08:49:25.082Z,35.22
2019-06-15T08:50:25.065Z,35.48
2019-06-15T08:51:25.077Z,35.66
2019-06-15T08:52:25.090Z,35.45
2019-06-15T08:53:25.104Z,35.53
2019-06-15T08:54:25.120Z,35.47
2019-06-15T08:55:25.132Z,35.50
2019-06-15T08:56:25.163Z,35.40
2019-06-15T08:57:25.159Z,35.22
2019-06-15T08:58:25.174Z,35.07
2019-06-15T08:59:25.197Z,35.19
2019-06-15T09:00:25.207Z,35.14
2019-06-15T09:01:25.218Z,35.18
2019-06-15T09:02:25.231Z,34.92
2019-06-15T09:03:25.248Z,34.89
2019-06-15T09:04:25.276Z,34.75
2019-06-15T09:05:25.276Z,34.73
2019-06-15T09:06:25.292Z,34.75
2019-06-15T09:07:25.309Z,35.02
2019-06-15T09:08:25.322Z,35.25
2019-06-15T09:09:25.346Z,35.41
2019-06-15T09:10:25.362Z,35.56
2019-06-15T09:11:25.377Z,35.63
2019-06-15T09:12:25.384Z,35.70
2019-06-15T09:13:25.404Z,35.82
2019-06-15T09:14:25.418Z,35.97
2019-06-15T09:15:25.438Z,35.99
2019-06-15T09:16:25.921Z,36.03
2019-06-15T09:17:25.465Z,36.34
2019-06-15T09:18:25.493Z,36.50
2019-06-15T09:19:25.502Z,36.64
2019-06-15T09:20:25.518Z,36.34
2019-06-15T09:21:25.544Z,36.08
2019-06-15T09:22:25.556Z,35.70
2019-06-15T09:23:25.573Z,35.43
2019-06-15T09:24:25.588Z,35.33
2019-06-15T09:25:25.603Z,35.29
2019-06-15T09:26:25.621Z,35.07
2019-06-15T09:27:25.633Z,35.02
2019-06-15T09:28:25.650Z,35.02
2019-06-15T09:29:25.673Z,35.25
2019-06-15T09:30:25.690Z,35.18
2019-06-15T09:31:25.708Z,35.00
2019-06-15T09:32:25.734Z,35.03
2019-06-15T09:33:25.770Z,35.15
2019-06-15T09:34:25.763Z,35.33
2019-06-15T09:35:25.778Z,35.47
2019-06-15T09:36:25.793Z,35.62
2019-06-15T09:37:25.812Z,35.58
2019-06-15T09:38:25.838Z,35.56
2019-06-15T09:39:25.847Z,35.47
2019-06-15T09:40:25.874Z,35.33
2019-06-15T09:41:25.887Z,35.19
2019-06-15T09:42:25.917Z,35.22
2019-06-15T09:43:25.925Z,35.36
2019-06-15T09:44:25.944Z,35.36
2019-06-15T09:45:25.953Z,35.60
2019-06-15T09:46:25.977Z,35.89
2019-06-15T09:47:25.997Z,35.97
2019-06-15T09:48:26.019Z,36.19
2019-06-15T09:49:26.042Z,36.07
2019-06-15T09:50:26.049Z,35.99
2019-06-15T09:51:26.071Z,35.99
2019-06-15T09:52:26.092Z,36.20
2019-06-15T09:53:26.103Z,36.38
2019-06-15T09:54:27.990Z,36.49
2019-06-15T09:55:26.139Z,36.68
2019-06-15T09:56:26.151Z,36.81
2019-06-15T09:57:26.176Z,37.02
2019-06-15T09:58:26.199Z,36.80
2019-06-15T09:59:26.544Z,36.47
2019-06-15T10:00:26.236Z,36.34
2019-06-15T10:01:26.259Z,36.05
2019-06-15T10:02:26.266Z,35.70
2019-06-15T10:03:26.284Z,35.56
2019-06-15T10:04:26.307Z,35.72
2019-06-15T10:05:26.335Z,35.71
2019-06-15T10:06:26.339Z,35.80
2019-06-15T10:07:26.354Z,36.08
2019-06-15T10:08:26.375Z,36.25
2019-06-15T10:09:26.393Z,36.37
2019-06-15T10:10:26.409Z,36.44
2019-06-15T10:11:26.428Z,36.53
2019-06-15T10:12:26.443Z,36.71
2019-06-15T10:13:26.461Z,36.54
2019-06-15T10:14:26.479Z,36.28
2019-06-15T10:15:26.511Z,36.37
2019-06-15T10:16:26.514Z,36.49
2019-06-15T10:17:26.529Z,36.62
2019-06-15T10:18:26.555Z,36.84
2019-06-15T10:19:26.564Z,37.03
2019-06-15T10:20:26.625Z,36.93
2019-06-15T10:21:26.598Z,37.09
2019-06-15T10:22:26.616Z,37.03
2019-06-15T10:23:26.634Z,37.17
2019-06-15T10:24:26.652Z,37.36
2019-06-15T10:25:26.693Z,37.34
2019-06-15T10:26:26.684Z,37.47
2019-06-15T10:27:26.709Z,37.64
2019-06-15T10:28:26.717Z,37.86
2019-06-15T10:29:41.246Z,37.96
2019-06-15T10:30:26.765Z,38.06
2019-06-15T10:31:26.774Z,38.00
2019-06-15T10:32:26.788Z,37.93
2019-06-15T10:33:26.804Z,37.85
2019-06-15T10:34:26.826Z,37.67
2019-06-15T10:35:26.847Z,37.39
2019-06-15T10:36:26.869Z,37.09
2019-06-15T10:37:26.882Z,36.95
2019-06-15T10:38:26.901Z,37.36
2019-06-15T10:39:27.002Z,37.69
2019-06-15T10:40:26.938Z,38.03
2019-06-15T10:41:26.954Z,38.34
2019-06-15T10:42:26.969Z,38.28
2019-06-15T10:43:26.988Z,38.06
2019-06-15T10:44:27.010Z,37.96
2019-06-15T10:45:27.023Z,37.85
2019-06-15T10:46:27.042Z,37.62
2019-06-15T10:47:27.065Z,37.78
2019-06-15T10:48:27.080Z,37.85
2019-06-15T10:49:27.100Z,37.76
2019-06-15T10:50:27.123Z,37.66
2019-06-15T10:51:27.139Z,37.46
2019-06-15T10:52:27.154Z,37.29
2019-06-15T10:53:27.175Z,37.18
2019-06-15T10:54:27.191Z,36.90
2019-06-15T10:55:27.215Z,36.43
2019-06-15T10:56:27.229Z,36.20
2019-06-15T10:57:27.252Z,36.01
2019-06-15T10:58:27.265Z,35.92
2019-06-15T10:59:27.288Z,35.65
2019-06-15T11:00:27.305Z,35.28
2019-06-15T11:01:27.321Z,34.96
2019-06-15T11:02:27.338Z,34.77
2019-06-15T11:03:27.360Z,34.49
2019-06-15T11:04:27.369Z,34.46
2019-06-15T11:05:27.383Z,34.32
2019-06-15T11:06:27.403Z,34.12
2019-06-15T11:07:27.420Z,33.94
2019-06-15T11:08:27.433Z,33.81
2019-06-15T11:09:27.449Z,33.78
2019-06-15T11:10:27.472Z,33.75
2019-06-15T11:11:27.493Z,33.94
2019-06-15T11:12:27.508Z,33.79
2019-06-15T11:13:27.516Z,33.75
2019-06-15T11:14:27.550Z,33.65
2019-06-15T11:15:27.537Z,33.61
2019-06-15T11:16:27.558Z,33.56
2019-06-15T11:17:27.587Z,33.53
2019-06-15T11:18:27.800Z,33.51
2019-06-15T11:19:27.605Z,33.54
2019-06-15T11:20:27.621Z,33.63
2019-06-15T11:21:27.630Z,33.72
2019-06-15T11:22:27.644Z,33.49
2019-06-15T11:23:27.656Z,33.54
2019-06-15T11:24:27.678Z,33.59
2019-06-15T11:25:27.691Z,33.54
2019-06-15T11:26:27.699Z,33.57
2019-06-15T11:27:27.711Z,33.66
2019-06-15T11:28:27.725Z,33.71
2019-06-15T11:29:27.742Z,33.68
2019-06-15T11:30:27.750Z,33.65
2019-06-15T11:31:27.767Z,33.65
2019-06-15T11:32:27.777Z,33.71
2019-06-15T11:33:27.793Z,33.82
2019-06-15T11:34:27.816Z,34.13
2019-06-15T11:35:27.820Z,34.25
2019-06-15T11:36:27.829Z,34.69
2019-06-15T11:37:27.842Z,34.92
2019-06-15T11:38:27.864Z,35.07
2019-06-15T11:39:27.873Z,35.15
2019-06-15T11:40:27.886Z,34.96
2019-06-15T11:41:27.899Z,34.99
2019-06-15T11:42:27.911Z,34.85
2019-06-15T11:43:27.924Z,34.72
2019-06-15T11:44:27.933Z,34.43
2019-06-15T11:45:27.950Z,34.31
2019-06-15T11:46:27.965Z,34.35
2019-06-15T11:47:27.975Z,34.15
2019-06-15T11:48:27.998Z,34.27
2019-06-15T11:49:28.002Z,34.24
2019-06-15T11:50:28.018Z,34.24
2019-06-15T11:51:28.038Z,34.19
2019-06-15T11:52:28.044Z,34.28
2019-06-15T11:53:28.060Z,34.32
2019-06-15T11:54:28.073Z,34.52
2019-06-15T11:55:39.176Z,34.72
2019-06-15T11:56:28.094Z,34.77
2019-06-15T11:57:28.112Z,34.66
2019-06-15T11:58:28.115Z,34.69
2019-06-15T11:59:28.136Z,34.81
2019-06-15T12:00:31.493Z,34.78
2019-06-15T12:01:28.156Z,34.78
2019-06-15T12:02:28.208Z,34.89
2019-06-15T12:03:28.189Z,34.91
2019-06-15T12:04:28.195Z,35.02
2019-06-15T12:05:28.209Z,35.07
2019-06-15T12:06:28.224Z,35.33
2019-06-15T12:07:28.241Z,35.81
2019-06-15T12:08:28.245Z,35.81
2019-06-15T12:09:28.259Z,35.89
2019-06-15T12:10:28.273Z,35.93
2019-06-15T12:11:28.289Z,36.08
2019-06-15T12:12:28.310Z,36.13
2019-06-15T12:13:28.318Z,36.54
2019-06-15T12:14:28.333Z,37.00
2019-06-15T12:15:28.342Z,37.47
2019-06-15T12:16:28.360Z,37.84
2019-06-15T12:17:28.378Z,38.06
2019-06-15T12:18:28.389Z,38.32
2019-06-15T12:19:28.401Z,38.81
2019-06-15T12:20:28.414Z,39.13
2019-06-15T12:21:28.436Z,39.52
2019-06-15T12:22:28.453Z,39.41
2019-06-15T12:23:28.473Z,39.36
2019-06-15T12:24:28.481Z,39.25
2019-06-15T12:25:28.502Z,39.21
2019-06-15T12:26:28.514Z,39.35
2019-06-15T12:27:28.532Z,39.36
2019-06-15T12:28:28.550Z,39.45
2019-06-15T12:29:28.565Z,38.96
2019-06-15T12:30:28.584Z,38.56
2019-06-15T12:31:28.599Z,38.22
2019-06-15T12:32:28.620Z,38.00
2019-06-15T12:33:28.637Z,37.75
2019-06-15T12:34:28.657Z,37.72
2019-06-15T12:35:28.676Z,37.62
2019-06-15T12:36:28.695Z,37.66
2019-06-15T12:37:28.714Z,37.66
2019-06-15T12:38:28.723Z,37.75
2019-06-15T12:39:28.741Z,37.85
2019-06-15T12:40:28.761Z,37.69
2019-06-15T12:41:28.771Z,37.94
2019-06-15T12:42:28.797Z,38.32
2019-06-15T12:43:28.804Z,38.71
2019-06-15T12:44:28.818Z,38.96
2019-06-15T12:45:28.837Z,38.69
2019-06-15T12:46:28.857Z,38.31
2019-06-15T12:47:28.873Z,37.78
2019-06-15T12:48:28.938Z,37.24
2019-06-15T12:49:28.903Z,37.12
2019-06-15T12:50:28.914Z,37.05
2019-06-15T12:51:28.933Z,36.69
2019-06-15T12:52:28.957Z,36.64